Beaver Dam, WI (53916)

10:55 PM CST on February 07, 2016 (GMT -0600)
APRSWXNET | | Change Station
CLOSE
Current Station
Personal Weather Station
Location: Beaver Dam, WI
Elevation: 904 ft
Nearby Weather Stations

Elev 904 ft 43.45 °N, 88.83 °W | Updated 36 minutes ago

Overcast
Overcast
34 °F
Feels Like 34 °F
N
1
Wind Variable Wind from SSW
Gusts 7.0 mph

Today
High -- | Low -- °F
--% Chance of Precip.
Yesterday
High -- | Low -- °F
Precip. -- in
Pressure 29.63 in
Visibility 10.0 miles
Clouds Overcast 4500 ft
Windchill 34 °F
Dew Point 22 °F
Humidity 62%
Rainfall in
Snow Depth Not available.
7:04 AM 5:14 PM
Waning Crescent, 0% visible
METAR KUNU 080435Z AUTO 22009KT 10SM OVC045 00/M02 A2963 RMK AO2 T00031022
Pressure 29.63 in
Visibility 10.0 miles
Clouds Overcast 4500 ft
Windchill 34 °F
Dew Point 22 °F
Humidity 62%
Rainfall in
Snow Depth Not available.
7:04 AM 5:14 PM
Waning Crescent, 0% visible
METAR KUNU 080435Z AUTO 22009KT 10SM OVC045 00/M02 A2963 RMK AO2 T00031022

10-Day Weather Forecast

Almanac

Astronomy

Feb. 07, 2016 Rise Set
Actual Time
Civil Twilight
Nautical Twilight
Astronomical Twilight
Moon
Length of Visible Light
Length of Day
Tomorrow will be .
, % of the Moon is Illuminated

Today's Extremes

State Highs State Lows

Community

WunderPhotos

Upload Photos

1,891,382 photos uploaded!

WunderBlog® & News

Nearby

Air Quality

  Air Quality AQ Index Pollutant
Not available.

Snow Depth

Station Depth Elevation

Earthquake Activity

City Distance Mag. Time & Date
Minimum magnitude displayed is 2.5.

Coastal Water Temperatures

Place Temperature

Stations

Nearby Weather Stations

Station Location Temp. Windchill Dew Point Humidity Wind Precip. Elev Updated Type
                   

Watches & Warnings

There are currently no watches in effect.